sensor_id;sensor_type;location;lat;lon;timestamp;temperature;humidity
60313;DHT22;46158;52.850;6.970;2023-01-25T00:00:39;11.90;76.70
60313;DHT22;46158;52.850;6.970;2023-01-25T00:03:04;11.80;76.60
60313;DHT22;46158;52.850;6.970;2023-01-25T00:05:30;11.90;76.70
60313;DHT22;46158;52.850;6.970;2023-01-25T00:07:55;11.80;76.60
60313;DHT22;46158;52.850;6.970;2023-01-25T00:10:21;11.80;76.60
60313;DHT22;46158;52.850;6.970;2023-01-25T00:12:47;11.80;76.60
60313;DHT22;46158;52.850;6.970;2023-01-25T00:15:12;11.80;76.50
60313;DHT22;46158;52.850;6.970;2023-01-25T00:17:38;11.80;76.50
60313;DHT22;46158;52.850;6.970;2023-01-25T00:20:03;11.70;76.40
60313;DHT22;46158;52.850;6.970;2023-01-25T00:22:29;11.80;76.50
60313;DHT22;46158;52.850;6.970;2023-01-25T00:24:55;11.80;76.40
60313;DHT22;46158;52.850;6.970;2023-01-25T00:27:20;11.70;76.40
60313;DHT22;46158;52.850;6.970;2023-01-25T00:29:46;11.70;76.40
60313;DHT22;46158;52.850;6.970;2023-01-25T00:39:58;11.70;76.20
60313;DHT22;46158;52.850;6.970;2023-01-25T00:42:24;11.70;76.30
60313;DHT22;46158;52.850;6.970;2023-01-25T00:44:49;11.60;76.20
60313;DHT22;46158;52.850;6.970;2023-01-25T00:47:15;11.60;76.20
60313;DHT22;46158;52.850;6.970;2023-01-25T00:49:41;11.60;76.30
60313;DHT22;46158;52.850;6.970;2023-01-25T00:52:07;11.60;76.20
60313;DHT22;46158;52.850;6.970;2023-01-25T00:54:33;11.60;76.20
60313;DHT22;46158;52.850;6.970;2023-01-25T00:56:58;11.60;76.10
60313;DHT22;46158;52.850;6.970;2023-01-25T00:59:24;11.60;76.10
60313;DHT22;46158;52.850;6.970;2023-01-25T01:01:50;11.60;76.10
60313;DHT22;46158;52.850;6.970;2023-01-25T01:04:15;11.60;76.10
60313;DHT22;46158;52.850;6.970;2023-01-25T01:06:41;11.60;76.00
60313;DHT22;46158;52.850;6.970;2023-01-25T01:09:07;11.60;76.00
60313;DHT22;46158;52.850;6.970;2023-01-25T01:11:35;11.60;75.90
60313;DHT22;46158;52.850;6.970;2023-01-25T01:14:01;11.60;75.90
60313;DHT22;46158;52.850;6.970;2023-01-25T01:16:26;11.60;75.80
60313;DHT22;46158;52.850;6.970;2023-01-25T01:18:52;11.60;75.80
60313;DHT22;46158;52.850;6.970;2023-01-25T01:21:18;11.60;75.70
60313;DHT22;46158;52.850;6.970;2023-01-25T01:23:43;11.60;75.70
60313;DHT22;46158;52.850;6.970;2023-01-25T01:26:13;11.60;75.60
60313;DHT22;46158;52.850;6.970;2023-01-25T01:28:39;11.60;75.60
60313;DHT22;46158;52.850;6.970;2023-01-25T01:31:09;11.60;75.50
60313;DHT22;46158;52.850;6.970;2023-01-25T01:33:35;11.60;75.50
60313;DHT22;46158;52.850;6.970;2023-01-25T01:36:20;11.60;75.50
60313;DHT22;46158;52.850;6.970;2023-01-25T01:38:46;11.60;75.50
60313;DHT22;46158;52.850;6.970;2023-01-25T01:41:12;11.60;75.50
60313;DHT22;46158;52.850;6.970;2023-01-25T01:43:38;11.60;75.40
60313;DHT22;46158;52.850;6.970;2023-01-25T01:48:31;11.60;75.40
60313;DHT22;46158;52.850;6.970;2023-01-25T01:50:59;11.60;75.40
60313;DHT22;46158;52.850;6.970;2023-01-25T01:53:25;11.60;75.30
60313;DHT22;46158;52.850;6.970;2023-01-25T01:55:52;11.60;75.30
60313;DHT22;46158;52.850;6.970;2023-01-25T01:58:20;11.60;75.30
60313;DHT22;46158;52.850;6.970;2023-01-25T02:00:45;11.60;75.20
60313;DHT22;46158;52.850;6.970;2023-01-25T02:03:11;11.60;75.20
60313;DHT22;46158;52.850;6.970;2023-01-25T02:08:19;11.50;75.10
60313;DHT22;46158;52.850;6.970;2023-01-25T02:10:45;11.60;75.20
60313;DHT22;46158;52.850;6.970;2023-01-25T02:13:11;11.50;75.10
60313;DHT22;46158;52.850;6.970;2023-01-25T02:15:41;11.50;75.10
60313;DHT22;46158;52.850;6.970;2023-01-25T02:18:10;11.50;75.00
60313;DHT22;46158;52.850;6.970;2023-01-25T02:20:37;11.50;75.00
60313;DHT22;46158;52.850;6.970;2023-01-25T02:25:48;11.50;75.00
60313;DHT22;46158;52.850;6.970;2023-01-25T02:30:45;11.40;75.00
60313;DHT22;46158;52.850;6.970;2023-01-25T02:33:10;11.40;75.10
60313;DHT22;46158;52.850;6.970;2023-01-25T02:35:38;11.50;75.10
60313;DHT22;46158;52.850;6.970;2023-01-25T02:38:04;11.40;75.00
60313;DHT22;46158;52.850;6.970;2023-01-25T02:40:31;11.40;75.10
60313;DHT22;46158;52.850;6.970;2023-01-25T02:43:00;11.40;75.10
60313;DHT22;46158;52.850;6.970;2023-01-25T02:45:26;11.40;75.10
60313;DHT22;46158;52.850;6.970;2023-01-25T02:47:53;11.40;75.10
60313;DHT22;46158;52.850;6.970;2023-01-25T02:50:19;11.40;75.10
60313;DHT22;46158;52.850;6.970;2023-01-25T02:52:45;11.40;75.20
60313;DHT22;46158;52.850;6.970;2023-01-25T02:55:10;11.40;75.20
60313;DHT22;46158;52.850;6.970;2023-01-25T02:57:36;11.40;75.20
60313;DHT22;46158;52.850;6.970;2023-01-25T03:00:02;11.40;75.20
60313;DHT22;46158;52.850;6.970;2023-01-25T03:02:28;11.40;75.20
60313;DHT22;46158;52.850;6.970;2023-01-25T03:04:53;11.40;75.20
60313;DHT22;46158;52.850;6.970;2023-01-25T03:07:19;11.40;75.20
60313;DHT22;46158;52.850;6.970;2023-01-25T03:09:44;11.40;75.20
60313;DHT22;46158;52.850;6.970;2023-01-25T03:12:10;11.40;75.20
60313;DHT22;46158;52.850;6.970;2023-01-25T03:14:36;11.50;75.20
60313;DHT22;46158;52.850;6.970;2023-01-25T03:17:01;11.40;75.10
60313;DHT22;46158;52.850;6.970;2023-01-25T03:19:27;11.50;75.20
60313;DHT22;46158;52.850;6.970;2023-01-25T03:21:52;11.40;75.10
60313;DHT22;46158;52.850;6.970;2023-01-25T03:24:18;11.40;75.10
60313;DHT22;46158;52.850;6.970;2023-01-25T03:26:44;11.50;75.20
60313;DHT22;46158;52.850;6.970;2023-01-25T03:29:28;11.50;75.20
60313;DHT22;46158;52.850;6.970;2023-01-25T03:31:53;11.50;75.20
60313;DHT22;46158;52.850;6.970;2023-01-25T03:34:19;11.50;75.20
60313;DHT22;46158;52.850;6.970;2023-01-25T03:36:44;11.40;75.10
60313;DHT22;46158;52.850;6.970;2023-01-25T03:39:10;11.50;75.20
60313;DHT22;46158;52.850;6.970;2023-01-25T03:41:36;11.40;75.10
60313;DHT22;46158;52.850;6.970;2023-01-25T03:44:01;11.40;75.10
60313;DHT22;46158;52.850;6.970;2023-01-25T03:46:27;11.50;75.20
60313;DHT22;46158;52.850;6.970;2023-01-25T03:48:52;11.50;75.10
60313;DHT22;46158;52.850;6.970;2023-01-25T03:51:18;11.50;75.10
60313;DHT22;46158;52.850;6.970;2023-01-25T03:53:43;11.50;75.10
60313;DHT22;46158;52.850;6.970;2023-01-25T03:56:10;11.50;75.10
60313;DHT22;46158;52.850;6.970;2023-01-25T03:58:37;11.50;75.10
60313;DHT22;46158;52.850;6.970;2023-01-25T04:01:03;11.50;75.10
60313;DHT22;46158;52.850;6.970;2023-01-25T04:03:29;11.50;75.10
60313;DHT22;46158;52.850;6.970;2023-01-25T04:05:55;11.50;75.10
60313;DHT22;46158;52.850;6.970;2023-01-25T04:08:21;11.50;75.00
60313;DHT22;46158;52.850;6.970;2023-01-25T04:10:53;11.50;75.10
60313;DHT22;46158;52.850;6.970;2023-01-25T04:13:20;11.50;75.10
60313;DHT22;46158;52.850;6.970;2023-01-25T04:15:46;11.50;75.10
60313;DHT22;46158;52.850;6.970;2023-01-25T04:18:12;11.50;75.00
60313;DHT22;46158;52.850;6.970;2023-01-25T04:20:37;11.50;75.10
60313;DHT22;46158;52.850;6.970;2023-01-25T04:23:03;11.50;75.10
60313;DHT22;46158;52.850;6.970;2023-01-25T04:25:31;11.50;75.00
60313;DHT22;46158;52.850;6.970;2023-01-25T04:27:57;11.50;75.00
60313;DHT22;46158;52.850;6.970;2023-01-25T04:30:22;11.50;75.00
60313;DHT22;46158;52.850;6.970;2023-01-25T04:32:48;11.50;75.00
60313;DHT22;46158;52.850;6.970;2023-01-25T04:35:13;11.50;75.00
60313;DHT22;46158;52.850;6.970;2023-01-25T04:37:39;11.50;75.00
60313;DHT22;46158;52.850;6.970;2023-01-25T04:40:05;11.50;75.00
60313;DHT22;46158;52.850;6.970;2023-01-25T04:42:31;11.50;75.00
60313;DHT22;46158;52.850;6.970;2023-01-25T04:44:57;11.50;75.00
60313;DHT22;46158;52.850;6.970;2023-01-25T04:47:22;11.50;75.00
60313;DHT22;46158;52.850;6.970;2023-01-25T04:49:48;11.50;75.00
60313;DHT22;46158;52.850;6.970;2023-01-25T04:52:13;11.50;75.00
60313;DHT22;46158;52.850;6.970;2023-01-25T04:54:39;11.50;75.00
60313;DHT22;46158;52.850;6.970;2023-01-25T04:57:05;11.50;75.00
60313;DHT22;46158;52.850;6.970;2023-01-25T04:59:31;11.50;75.00
60313;DHT22;46158;52.850;6.970;2023-01-25T05:01:57;11.50;75.00
60313;DHT22;46158;52.850;6.970;2023-01-25T05:04:22;11.50;75.00
60313;DHT22;46158;52.850;6.970;2023-01-25T05:06:48;11.50;75.00
60313;DHT22;46158;52.850;6.970;2023-01-25T05:09:13;11.50;74.90
60313;DHT22;46158;52.850;6.970;2023-01-25T05:11:40;11.50;75.00
60313;DHT22;46158;52.850;6.970;2023-01-25T05:14:06;11.50;74.90
60313;DHT22;46158;52.850;6.970;2023-01-25T05:16:32;11.50;75.00
60313;DHT22;46158;52.850;6.970;2023-01-25T05:18:57;11.50;75.00
60313;DHT22;46158;52.850;6.970;2023-01-25T05:21:23;11.50;74.90
60313;DHT22;46158;52.850;6.970;2023-01-25T05:24:08;11.50;74.90
60313;DHT22;46158;52.850;6.970;2023-01-25T05:26:33;11.50;75.00
60313;DHT22;46158;52.850;6.970;2023-01-25T05:29:18;11.50;74.90
60313;DHT22;46158;52.850;6.970;2023-01-25T05:31:43;11.50;74.90
60313;DHT22;46158;52.850;6.970;2023-01-25T05:34:09;11.50;75.00
60313;DHT22;46158;52.850;6.970;2023-01-25T05:36:34;11.50;75.00
60313;DHT22;46158;52.850;6.970;2023-01-25T05:39:00;11.50;75.00
60313;DHT22;46158;52.850;6.970;2023-01-25T05:41:26;11.50;75.10
60313;DHT22;46158;52.850;6.970;2023-01-25T05:43:51;11.50;75.00
60313;DHT22;46158;52.850;6.970;2023-01-25T05:46:17;11.50;75.00
60313;DHT22;46158;52.850;6.970;2023-01-25T05:48:43;11.50;75.00
60313;DHT22;46158;52.850;6.970;2023-01-25T05:51:08;11.50;75.00
60313;DHT22;46158;52.850;6.970;2023-01-25T05:53:34;11.50;75.00
60313;DHT22;46158;52.850;6.970;2023-01-25T05:56:03;11.50;75.90
60313;DHT22;46158;52.850;6.970;2023-01-25T05:58:29;11.50;75.30
60313;DHT22;46158;52.850;6.970;2023-01-25T06:00:55;11.50;75.40
60313;DHT22;46158;52.850;6.970;2023-01-25T06:03:20;11.60;75.60
60313;DHT22;46158;52.850;6.970;2023-01-25T06:05:53;11.50;75.60
60313;DHT22;46158;52.850;6.970;2023-01-25T06:08:18;11.60;75.80
60313;DHT22;46158;52.850;6.970;2023-01-25T06:10:44;11.60;75.80
60313;DHT22;46158;52.850;6.970;2023-01-25T06:13:10;11.60;75.90
60313;DHT22;46158;52.850;6.970;2023-01-25T06:15:35;11.60;75.90
60313;DHT22;46158;52.850;6.970;2023-01-25T06:18:01;11.60;76.00
60313;DHT22;46158;52.850;6.970;2023-01-25T06:20:26;11.60;76.10
60313;DHT22;46158;52.850;6.970;2023-01-25T06:22:52;11.70;76.20
60313;DHT22;46158;52.850;6.970;2023-01-25T06:25:18;11.70;76.20
60313;DHT22;46158;52.850;6.970;2023-01-25T06:27:44;11.70;76.20
60313;DHT22;46158;52.850;6.970;2023-01-25T06:30:10;11.70;76.30
60313;DHT22;46158;52.850;6.970;2023-01-25T06:32:36;11.70;76.30
60313;DHT22;46158;52.850;6.970;2023-01-25T06:35:01;11.70;76.30
60313;DHT22;46158;52.850;6.970;2023-01-25T06:37:27;11.70;76.40
60313;DHT22;46158;52.850;6.970;2023-01-25T06:39:53;11.80;76.40
60313;DHT22;46158;52.850;6.970;2023-01-25T06:42:18;11.80;76.50
60313;DHT22;46158;52.850;6.970;2023-01-25T06:44:44;11.80;76.60
60313;DHT22;46158;52.850;6.970;2023-01-25T06:47:10;11.80;76.50
60313;DHT22;46158;52.850;6.970;2023-01-25T06:49:37;11.90;76.60
60313;DHT22;46158;52.850;6.970;2023-01-25T06:52:02;11.90;76.60
60313;DHT22;46158;52.850;6.970;2023-01-25T06:54:28;11.90;76.60
60313;DHT22;46158;52.850;6.970;2023-01-25T06:56:54;11.90;76.60
60313;DHT22;46158;52.850;6.970;2023-01-25T06:59:20;11.90;76.60
60313;DHT22;46158;52.850;6.970;2023-01-25T07:01:46;12.00;76.60
60313;DHT22;46158;52.850;6.970;2023-01-25T07:04:12;12.00;76.70
60313;DHT22;46158;52.850;6.970;2023-01-25T07:06:38;12.00;76.60
60313;DHT22;46158;52.850;6.970;2023-01-25T07:09:04;12.00;76.60
60313;DHT22;46158;52.850;6.970;2023-01-25T07:11:30;12.00;76.60
60313;DHT22;46158;52.850;6.970;2023-01-25T07:13:56;12.00;76.50
60313;DHT22;46158;52.850;6.970;2023-01-25T07:16:22;12.10;76.60
60313;DHT22;46158;52.850;6.970;2023-01-25T07:18:48;12.10;76.50
60313;DHT22;46158;52.850;6.970;2023-01-25T07:21:14;12.10;76.40
60313;DHT22;46158;52.850;6.970;2023-01-25T07:23:40;12.10;76.30
60313;DHT22;46158;52.850;6.970;2023-01-25T07:26:27;12.10;76.30
60313;DHT22;46158;52.850;6.970;2023-01-25T07:28:52;12.10;76.30
60313;DHT22;46158;52.850;6.970;2023-01-25T07:31:20;12.10;76.30
60313;DHT22;46158;52.850;6.970;2023-01-25T07:33:49;12.10;76.30
60313;DHT22;46158;52.850;6.970;2023-01-25T07:36:15;12.10;76.30
60313;DHT22;46158;52.850;6.970;2023-01-25T07:38:41;12.10;76.30
60313;DHT22;46158;52.850;6.970;2023-01-25T07:41:07;12.20;76.40
60313;DHT22;46158;52.850;6.970;2023-01-25T07:43:32;12.20;76.40
60313;DHT22;46158;52.850;6.970;2023-01-25T07:46:16;12.20;76.40
60313;DHT22;46158;52.850;6.970;2023-01-25T07:48:48;12.20;76.40
60313;DHT22;46158;52.850;6.970;2023-01-25T07:51:15;12.20;76.30
60313;DHT22;46158;52.850;6.970;2023-01-25T07:53:47;12.20;76.30
60313;DHT22;46158;52.850;6.970;2023-01-25T07:56:13;12.20;76.60
60313;DHT22;46158;52.850;6.970;2023-01-25T07:58:38;12.20;76.20
60313;DHT22;46158;52.850;6.970;2023-01-25T08:01:07;12.30;76.30
60313;DHT22;46158;52.850;6.970;2023-01-25T08:03:33;12.20;76.20
60313;DHT22;46158;52.850;6.970;2023-01-25T08:06:02;12.20;76.20
60313;DHT22;46158;52.850;6.970;2023-01-25T08:08:30;12.30;76.20
60313;DHT22;46158;52.850;6.970;2023-01-25T08:11:05;12.30;76.20
60313;DHT22;46158;52.850;6.970;2023-01-25T08:13:35;12.30;76.20
60313;DHT22;46158;52.850;6.970;2023-01-25T08:16:00;12.30;76.20
60313;DHT22;46158;52.850;6.970;2023-01-25T08:18:30;12.30;76.30
60313;DHT22;46158;52.850;6.970;2023-01-25T08:21:05;12.30;76.40
60313;DHT22;46158;52.850;6.970;2023-01-25T08:23:31;12.30;76.40
60313;DHT22;46158;52.850;6.970;2023-01-25T08:26:07;12.30;76.30
60313;DHT22;46158;52.850;6.970;2023-01-25T08:28:36;12.40;76.10
60313;DHT22;46158;52.850;6.970;2023-01-25T08:31:12;12.30;76.10
60313;DHT22;46158;52.850;6.970;2023-01-25T08:33:41;12.30;76.10
60313;DHT22;46158;52.850;6.970;2023-01-25T08:36:09;12.30;76.10
60313;DHT22;46158;52.850;6.970;2023-01-25T08:38:35;12.40;76.20
60313;DHT22;46158;52.850;6.970;2023-01-25T08:41:12;12.30;76.10
60313;DHT22;46158;52.850;6.970;2023-01-25T08:43:38;12.40;76.10
60313;DHT22;46158;52.850;6.970;2023-01-25T08:46:04;12.40;76.10
60313;DHT22;46158;52.850;6.970;2023-01-25T08:48:34;12.40;76.10
60313;DHT22;46158;52.850;6.970;2023-01-25T08:51:00;12.40;76.00
60313;DHT22;46158;52.850;6.970;2023-01-25T08:53:29;12.40;75.90
60313;DHT22;46158;52.850;6.970;2023-01-25T08:55:55;12.40;75.90
60313;DHT22;46158;52.850;6.970;2023-01-25T08:58:21;12.40;75.90
60313;DHT22;46158;52.850;6.970;2023-01-25T09:00:53;12.40;75.80
60313;DHT22;46158;52.850;6.970;2023-01-25T09:03:22;12.40;75.50
60313;DHT22;46158;52.850;6.970;2023-01-25T09:05:48;12.40;75.60
60313;DHT22;46158;52.850;6.970;2023-01-25T09:08:17;12.40;75.70
60313;DHT22;46158;52.850;6.970;2023-01-25T09:10:43;12.40;75.60
60313;DHT22;46158;52.850;6.970;2023-01-25T09:13:11;12.50;75.50
60313;DHT22;46158;52.850;6.970;2023-01-25T09:15:38;12.40;75.30
60313;DHT22;46158;52.850;6.970;2023-01-25T09:18:04;12.40;75.20
60313;DHT22;46158;52.850;6.970;2023-01-25T09:20:31;12.40;75.30
60313;DHT22;46158;52.850;6.970;2023-01-25T09:22:57;12.40;75.30
60313;DHT22;46158;52.850;6.970;2023-01-25T09:25:33;12.40;75.30
60313;DHT22;46158;52.850;6.970;2023-01-25T09:28:00;12.40;75.30
60313;DHT22;46158;52.850;6.970;2023-01-25T09:30:28;12.40;75.30
60313;DHT22;46158;52.850;6.970;2023-01-25T09:32:55;12.40;75.20
60313;DHT22;46158;52.850;6.970;2023-01-25T09:35:24;12.40;75.00
60313;DHT22;46158;52.850;6.970;2023-01-25T09:37:54;12.40;74.90
60313;DHT22;46158;52.850;6.970;2023-01-25T09:40:23;12.40;75.00
60313;DHT22;46158;52.850;6.970;2023-01-25T09:43:04;12.40;75.00
60313;DHT22;46158;52.850;6.970;2023-01-25T09:45:35;12.30;75.00
60313;DHT22;46158;52.850;6.970;2023-01-25T09:53:33;12.30;75.20
60313;DHT22;46158;52.850;6.970;2023-01-25T09:56:22;12.30;75.20
60313;DHT22;46158;52.850;6.970;2023-01-25T09:58:47;12.30;75.20
60313;DHT22;46158;52.850;6.970;2023-01-25T10:01:23;12.30;75.30
60313;DHT22;46158;52.850;6.970;2023-01-25T10:06:48;12.30;75.50
60313;DHT22;46158;52.850;6.970;2023-01-25T10:09:30;12.30;75.60
60313;DHT22;46158;52.850;6.970;2023-01-25T10:12:01;12.30;75.60
60313;DHT22;46158;52.850;6.970;2023-01-25T10:14:29;12.30;75.70
60313;DHT22;46158;52.850;6.970;2023-01-25T10:17:05;12.20;75.60
60313;DHT22;46158;52.850;6.970;2023-01-25T10:22:26;12.30;75.80
60313;DHT22;46158;52.850;6.970;2023-01-25T10:25:10;12.30;75.80
60313;DHT22;46158;52.850;6.970;2023-01-25T10:30:28;12.30;75.90
60313;DHT22;46158;52.850;6.970;2023-01-25T10:33:01;12.30;75.90
60313;DHT22;46158;52.850;6.970;2023-01-25T10:35:35;12.30;76.00
60313;DHT22;46158;52.850;6.970;2023-01-25T10:38:04;12.40;76.00
60313;DHT22;46158;52.850;6.970;2023-01-25T10:40:34;12.40;76.10
60313;DHT22;46158;52.850;6.970;2023-01-25T10:43:18;12.40;76.10
60313;DHT22;46158;52.850;6.970;2023-01-25T10:45:56;12.40;76.10
60313;DHT22;46158;52.850;6.970;2023-01-25T10:48:34;12.50;76.20
60313;DHT22;46158;52.850;6.970;2023-01-25T10:53:42;12.40;76.00
60313;DHT22;46158;52.850;6.970;2023-01-25T10:56:23;12.50;76.30
60313;DHT22;46158;52.850;6.970;2023-01-25T10:59:04;12.50;76.30
60313;DHT22;46158;52.850;6.970;2023-01-25T11:01:32;12.50;76.40
60313;DHT22;46158;52.850;6.970;2023-01-25T11:04:01;12.50;76.30
60313;DHT22;46158;52.850;6.970;2023-01-25T11:06:34;12.50;76.30
60313;DHT22;46158;52.850;6.970;2023-01-25T11:09:45;12.50;76.30
60313;DHT22;46158;52.850;6.970;2023-01-25T11:11:55;12.50;76.30
60313;DHT22;46158;52.850;6.970;2023-01-25T11:14:22;12.50;76.20
60313;DHT22;46158;52.850;6.970;2023-01-25T11:16:48;12.50;76.30
60313;DHT22;46158;52.850;6.970;2023-01-25T11:21:59;12.60;76.30
60313;DHT22;46158;52.850;6.970;2023-01-25T11:24:32;12.50;76.20
60313;DHT22;46158;52.850;6.970;2023-01-25T11:27:12;12.60;76.30
60313;DHT22;46158;52.850;6.970;2023-01-25T11:29:38;12.60;76.30
60313;DHT22;46158;52.850;6.970;2023-01-25T11:32:19;12.60;76.30
60313;DHT22;46158;52.850;6.970;2023-01-25T11:34:50;12.60;76.40
60313;DHT22;46158;52.850;6.970;2023-01-25T11:37:19;12.60;76.40
60313;DHT22;46158;52.850;6.970;2023-01-25T11:42:40;12.60;76.50
60313;DHT22;46158;52.850;6.970;2023-01-25T11:47:53;12.60;76.50
60313;DHT22;46158;52.850;6.970;2023-01-25T11:53:29;12.70;76.60
60313;DHT22;46158;52.850;6.970;2023-01-25T12:01:40;12.60;76.80
60313;DHT22;46158;52.850;6.970;2023-01-25T12:04:23;12.60;76.90
60313;DHT22;46158;52.850;6.970;2023-01-25T12:06:56;12.70;77.00
60313;DHT22;46158;52.850;6.970;2023-01-25T12:33:33;12.70;77.10
60313;DHT22;46158;52.850;6.970;2023-01-25T12:38:36;12.70;77.10
60313;DHT22;46158;52.850;6.970;2023-01-25T12:44:10;12.70;77.30
60313;DHT22;46158;52.850;6.970;2023-01-25T12:49:21;12.70;77.10
60313;DHT22;46158;52.850;6.970;2023-01-25T12:51:48;12.70;76.90
60313;DHT22;46158;52.850;6.970;2023-01-25T12:54:16;12.70;76.90
60313;DHT22;46158;52.850;6.970;2023-01-25T12:56:51;12.70;76.90
60313;DHT22;46158;52.850;6.970;2023-01-25T13:08:15;12.70;77.00
60313;DHT22;46158;52.850;6.970;2023-01-25T13:15:47;12.70;76.90
60313;DHT22;46158;52.850;6.970;2023-01-25T13:23:42;12.70;76.80
60313;DHT22;46158;52.850;6.970;2023-01-25T13:28:49;12.70;76.80
60313;DHT22;46158;52.850;6.970;2023-01-25T13:34:01;12.70;76.70
60313;DHT22;46158;52.850;6.970;2023-01-25T13:42:03;12.70;77.00
60313;DHT22;46158;52.850;6.970;2023-01-25T13:44:32;12.70;77.00
60313;DHT22;46158;52.850;6.970;2023-01-25T13:46:59;12.70;77.10
60313;DHT22;46158;52.850;6.970;2023-01-25T13:49:26;12.70;77.20
60313;DHT22;46158;52.850;6.970;2023-01-25T13:51:55;12.70;77.20
60313;DHT22;46158;52.850;6.970;2023-01-25T13:54:24;12.60;77.20
60313;DHT22;46158;52.850;6.970;2023-01-25T13:57:03;12.70;77.40
60313;DHT22;46158;52.850;6.970;2023-01-25T13:59:29;12.70;77.50
60313;DHT22;46158;52.850;6.970;2023-01-25T14:01:56;12.70;77.50
60313;DHT22;46158;52.850;6.970;2023-01-25T14:04:21;12.70;77.50
60313;DHT22;46158;52.850;6.970;2023-01-25T14:06:53;12.70;77.60
60313;DHT22;46158;52.850;6.970;2023-01-25T14:09:23;12.70;77.50
60313;DHT22;46158;52.850;6.970;2023-01-25T14:14:28;12.70;77.40
60313;DHT22;46158;52.850;6.970;2023-01-25T14:17:20;12.70;77.50
60313;DHT22;46158;52.850;6.970;2023-01-25T14:19:51;12.70;77.60
60313;DHT22;46158;52.850;6.970;2023-01-25T14:25:09;12.80;77.80
60313;DHT22;46158;52.850;6.970;2023-01-25T14:30:41;12.80;77.60
60313;DHT22;46158;52.850;6.970;2023-01-25T14:33:31;12.80;77.50
60313;DHT22;46158;52.850;6.970;2023-01-25T14:36:07;12.80;77.30
60313;DHT22;46158;52.850;6.970;2023-01-25T14:38:34;12.90;77.30
60313;DHT22;46158;52.850;6.970;2023-01-25T14:43:41;12.90;77.20
60313;DHT22;46158;52.850;6.970;2023-01-25T14:46:28;13.00;77.20
60313;DHT22;46158;52.850;6.970;2023-01-25T14:49:14;13.00;77.20
60313;DHT22;46158;52.850;6.970;2023-01-25T14:51:48;13.00;77.10
60313;DHT22;46158;52.850;6.970;2023-01-25T14:54:33;13.00;77.10
60313;DHT22;46158;52.850;6.970;2023-01-25T14:57:31;13.00;77.00
60313;DHT22;46158;52.850;6.970;2023-01-25T14:59:57;13.00;76.90
60313;DHT22;46158;52.850;6.970;2023-01-25T15:02:25;13.00;76.80
60313;DHT22;46158;52.850;6.970;2023-01-25T15:05:02;13.00;76.70
60313;DHT22;46158;52.850;6.970;2023-01-25T15:07:50;13.00;76.50
60313;DHT22;46158;52.850;6.970;2023-01-25T15:10:20;13.00;76.50
60313;DHT22;46158;52.850;6.970;2023-01-25T15:15:32;13.00;76.40
60313;DHT22;46158;52.850;6.970;2023-01-25T15:18:01;13.00;77.10
60313;DHT22;46158;52.850;6.970;2023-01-25T15:22:54;13.00;76.40
60313;DHT22;46158;52.850;6.970;2023-01-25T15:25:26;13.00;76.40
60313;DHT22;46158;52.850;6.970;2023-01-25T15:27:52;13.00;76.30
60313;DHT22;46158;52.850;6.970;2023-01-25T15:30:20;13.00;76.50
60313;DHT22;46158;52.850;6.970;2023-01-25T15:32:51;13.00;76.40
60313;DHT22;46158;52.850;6.970;2023-01-25T15:35:18;13.00;76.40
60313;DHT22;46158;52.850;6.970;2023-01-25T15:37:50;13.00;76.50
60313;DHT22;46158;52.850;6.970;2023-01-25T15:40:21;13.00;76.50
60313;DHT22;46158;52.850;6.970;2023-01-25T15:42:47;13.00;76.40
60313;DHT22;46158;52.850;6.970;2023-01-25T15:45:13;13.00;76.40
60313;DHT22;46158;52.850;6.970;2023-01-25T15:47:38;12.90;76.50
60313;DHT22;46158;52.850;6.970;2023-01-25T15:50:12;13.00;76.50
60313;DHT22;46158;52.850;6.970;2023-01-25T15:52:41;13.00;76.60
60313;DHT22;46158;52.850;6.970;2023-01-25T15:55:07;12.90;76.50
60313;DHT22;46158;52.850;6.970;2023-01-25T15:57:33;12.90;76.50
60313;DHT22;46158;52.850;6.970;2023-01-25T16:00:00;12.90;76.50
60313;DHT22;46158;52.850;6.970;2023-01-25T16:02:26;12.90;76.50
60313;DHT22;46158;52.850;6.970;2023-01-25T16:04:52;12.90;76.60
60313;DHT22;46158;52.850;6.970;2023-01-25T16:07:20;12.90;76.60
60313;DHT22;46158;52.850;6.970;2023-01-25T16:09:47;12.90;76.60
60313;DHT22;46158;52.850;6.970;2023-01-25T16:12:14;12.90;76.60
60313;DHT22;46158;52.850;6.970;2023-01-25T16:14:40;12.90;76.60
60313;DHT22;46158;52.850;6.970;2023-01-25T16:17:26;12.90;76.60
60313;DHT22;46158;52.850;6.970;2023-01-25T16:19:54;12.90;76.60
60313;DHT22;46158;52.850;6.970;2023-01-25T16:22:22;12.90;76.60
60313;DHT22;46158;52.850;6.970;2023-01-25T16:25:11;12.80;76.40
60313;DHT22;46158;52.850;6.970;2023-01-25T16:27:37;12.90;76.60
60313;DHT22;46158;52.850;6.970;2023-01-25T16:30:04;12.80;76.40
60313;DHT22;46158;52.850;6.970;2023-01-25T16:32:30;12.80;76.40
60313;DHT22;46158;52.850;6.970;2023-01-25T16:34:56;12.80;76.40
60313;DHT22;46158;52.850;6.970;2023-01-25T16:37:22;12.80;76.40
60313;DHT22;46158;52.850;6.970;2023-01-25T16:39:48;12.80;76.30
60313;DHT22;46158;52.850;6.970;2023-01-25T16:42:16;12.80;76.30
60313;DHT22;46158;52.850;6.970;2023-01-25T16:44:41;12.80;76.40
60313;DHT22;46158;52.850;6.970;2023-01-25T16:47:08;12.80;76.40
60313;DHT22;46158;52.850;6.970;2023-01-25T16:49:35;12.80;76.30
60313;DHT22;46158;52.850;6.970;2023-01-25T16:52:08;12.80;76.40
60313;DHT22;46158;52.850;6.970;2023-01-25T16:54:34;12.70;76.30
60313;DHT22;46158;52.850;6.970;2023-01-25T16:57:00;12.70;76.40
60313;DHT22;46158;52.850;6.970;2023-01-25T16:59:25;12.70;76.30
60313;DHT22;46158;52.850;6.970;2023-01-25T17:01:51;12.70;76.30
60313;DHT22;46158;52.850;6.970;2023-01-25T17:04:16;12.80;76.30
60313;DHT22;46158;52.850;6.970;2023-01-25T17:06:43;12.70;76.30
60313;DHT22;46158;52.850;6.970;2023-01-25T17:09:11;12.70;76.40
60313;DHT22;46158;52.850;6.970;2023-01-25T17:11:37;12.70;76.40
60313;DHT22;46158;52.850;6.970;2023-01-25T17:14:03;12.70;76.40
60313;DHT22;46158;52.850;6.970;2023-01-25T17:16:29;12.70;76.40
60313;DHT22;46158;52.850;6.970;2023-01-25T17:18:56;12.70;76.40
60313;DHT22;46158;52.850;6.970;2023-01-25T17:21:23;12.70;76.40
60313;DHT22;46158;52.850;6.970;2023-01-25T17:23:49;12.70;76.30
60313;DHT22;46158;52.850;6.970;2023-01-25T17:26:16;12.70;76.50
60313;DHT22;46158;52.850;6.970;2023-01-25T17:28:42;12.70;76.70
60313;DHT22;46158;52.850;6.970;2023-01-25T17:31:19;12.60;76.70
60313;DHT22;46158;52.850;6.970;2023-01-25T17:33:44;12.60;76.90
60313;DHT22;46158;52.850;6.970;2023-01-25T17:36:10;12.60;76.90
60313;DHT22;46158;52.850;6.970;2023-01-25T17:38:37;12.60;76.90
60313;DHT22;46158;52.850;6.970;2023-01-25T17:41:04;12.70;77.00
60313;DHT22;46158;52.850;6.970;2023-01-25T17:43:36;12.60;77.00
60313;DHT22;46158;52.850;6.970;2023-01-25T17:46:24;12.60;77.00
60313;DHT22;46158;52.850;6.970;2023-01-25T17:48:51;12.60;77.00